Terminal Aerodrome Forecast
Issued by NWS

Home | Current Version | Previous Version | Text Only | Print | Product List | Glossary On
Versions: 1 2 3 4 5 6 7 8 9 10 11 12
000
FTUS46 KPDT 282300
TAFYKM
TAF
KYKM 282320Z 2900/2924 29011KT P6SM SCT120 SCT250
     FM290900 28006KT P6SM FEW250
     FM291800 VRB06KT P6SM SCT200
     FM292200 30011KT P6SM SCT200=

USA.gov is the U.S. government's official web portal to all federal, state and local government web resources and services.